Latest Weather Observations for Sydney Harbour

IDN60801

Issued at 11:02 pm EDT Wednesday 7 December 2016 (issued every 30 minutes, with the page automatically refreshed every 10 minutes)

About weather observations | Map of weather stations | Latest weather observations for NSW | Other Formats
Station Details ID: 066196 Name: WEDDING CAKE WEST Lat: -33.84 Lon: 151.26 Height: 6.0 m
Data from the previous 72 hours. | See also: Recent months at Sydney Harbour
Date/Time
EDT
Temp
°C
App
Temp
°C
Dew
Point
°C
Rel
Hum
%
Delta-T
°C
Wind Press
QNH
hPa
Press
MSL
hPa
Rain since
9am
mm
Dir  Spd
km/h
Gust
km/h
Spd
kts
Gust
kts
07/11:00pm 21.2 - - - - NNE 32 37 17 20 - - -
07/10:30pm 21.4 - - - - NE 30 37 16 20 - - -
07/10:00pm 21.4 - - - - NNE 32 37 17 20 - - -
07/09:30pm 21.3 - - - - NE 30 39 16 21 - - -
07/09:00pm 21.3 - - - - NE 28 35 15 19 - - -
07/08:30pm 21.4 - - - - NE 30 37 16 20 - - -
07/08:00pm 21.4 - - - - NE 28 35 15 19 - - -
07/07:30pm 21.5 - - - - NE 32 35 17 19 - - -
07/07:00pm 21.5 - - - - NE 30 35 16 19 - - -
07/06:30pm 21.4 - - - - NE 28 35 15 19 - - -
07/06:00pm 21.5 - - - - NE 28 33 15 18 - - -
07/05:30pm 21.5 - - - - ENE 26 32 14 17 - - -
07/05:00pm 21.4 - - - - ENE 24 28 13 15 - - -
07/04:30pm 21.5 - - - - ENE 22 26 12 14 - - -
07/04:00pm 21.6 - - - - ENE 24 26 13 14 - - -
07/03:30pm 21.5 - - - - ENE 20 24 11 13 - - -
07/03:00pm 21.7 - - - - E 20 26 11 14 - - -
07/02:30pm 22.1 - - - - E 19 24 10 13 - - -
07/02:00pm 22.1 - - - - E 19 24 10 13 - - -
07/01:30pm 22.5 - - - - E 20 24 11 13 - - -
07/01:00pm 22.3 - - - - E 20 24 11 13 - - -
07/12:30pm 22.2 - - - - E 19 26 10 14 - - -
07/12:00pm 22.3 - - - - ESE 19 22 10 12 - - -
07/11:30am 22.0 - - - - ESE 15 22 8 12 - - -
07/11:00am 21.8 - - - - ESE 17 22 9 12 - - -
07/10:30am 21.7 - - - - SE 19 26 10 14 - - -
07/10:00am 21.9 - - - - ESE 17 22 9 12 - - -
07/09:30am 21.6 - - - - SE 20 26 11 14 - - -
07/09:00am 21.7 - - - - SE 20 26 11 14 - - -
07/08:30am 21.2 - - - - SE 20 26 11 14 - - -
07/08:00am 20.9 - - - - SE 22 28 12 15 - - -
07/07:30am 20.6 - - - - SSE 17 24 9 13 - - -
07/07:00am 20.3 - - - - SSW 17 26 9 14 - - -
07/06:30am 19.8 - - - - WSW 19 28 10 15 - - -
07/06:00am 19.6 - - - - S 13 15 7 8 - - -
07/05:30am 19.9 - - - - S 7 11 4 6 - - -
07/05:00am 20.7 - - - - S 11 13 6 7 - - -
07/04:30am 20.3 - - - - S 9 11 5 6 - - -
07/04:00am 20.2 - - - - S 13 17 7 9 - - -
07/03:30am 20.5 - - - - SSW 13 19 7 10 - - -
07/03:00am 20.4 - - - - SSW 20 26 11 14 - - -
07/02:30am 20.6 - - - - SSW 28 33 15 18 - - -
07/02:00am 20.6 - - - - SW 33 41 18 22 - - -
07/01:30am 20.8 - - - - SSW 30 37 16 20 - - -
07/01:00am 21.1 - - - - SSW 33 41 18 22 - - -
07/12:30am 21.3 - - - - SSW 30 35 16 19 - - -
07/12:00am 21.6 - - - - SSW 24 30 13 16 - - -
 
Date/Time
EDT
Temp
°C
App
Temp
°C
Dew
Point
°C
Rel
Hum
%
Delta-T
°C
Wind Press
QNH
hPa
Press
MSL
hPa
Rain since
9am
mm
Dir  Spd
km/h
Gust
km/h
Spd
kts
Gust
kts
06/11:30pm 21.7 - - - - SSW 24 30 13 16 - - -
06/11:00pm 23.4 - - - - SW 24 30 13 16 - - -
06/10:30pm 23.4 - - - - WSW 19 24 10 13 - - -
06/10:00pm 23.7 - - - - W 15 22 8 12 - - -
06/09:30pm 23.2 - - - - W 20 24 11 13 - - -
06/09:00pm 23.1 - - - - W 15 20 8 11 - - -
06/08:30pm 22.9 - - - - SW 9 13 5 7 - - -
06/08:00pm 23.1 - - - - WNW 13 19 7 10 - - -
06/07:30pm 23.0 - - - - NNW 9 20 5 11 - - -
06/07:00pm 22.1 - - - - N 11 13 6 7 - - -
06/06:30pm 22.3 - - - - N 11 13 6 7 - - -
06/06:00pm 22.3 - - - - CALM 0 0 0 0 - - -
06/05:30pm 22.4 - - - - CALM 0 0 0 0 - - -
06/05:00pm 22.2 - - - - N 9 11 5 6 - - -
06/04:30pm 22.1 - - - - CALM 0 0 0 0 - - -
06/04:00pm 21.8 - - - - N 11 15 6 8 - - -
06/03:30pm 21.3 - - - - N 17 20 9 11 - - -
06/03:00pm 20.9 - - - - SSW 11 13 6 7 - - -
06/02:30pm 21.8 - - - - SSW 7 11 4 6 - - -
06/02:00pm 21.6 - - - - SSW 15 17 8 9 - - -
06/01:30pm 22.1 - - - - SSW 13 17 7 9 - - -
06/01:00pm 22.4 - - - - SSW 7 9 4 5 - - -
06/12:30pm 21.5 - - - - SSW 13 15 7 8 - - -
06/12:00pm 21.9 - - - - SSW 15 19 8 10 - - -
06/11:30am 22.2 - - - - SSW 7 15 4 8 - - -
06/11:00am 21.7 - - - - SSW 9 13 5 7 - - -
06/10:30am 21.4 - - - - SSW 11 15 6 8 - - -
06/10:00am 21.1 - - - - SSW 13 17 7 9 - - -
06/09:30am 20.5 - - - - WSW 11 13 6 7 - - -
06/09:00am 20.2 - - - - WSW 15 17 8 9 - - -
06/08:30am 20.4 - - - - SW 15 19 8 10 - - -
06/08:00am 20.5 - - - - SW 20 26 11 14 - - -
06/07:30am 20.9 - - - - SW 24 32 13 17 - - -
06/07:00am 21.0 - - - - SSW 24 28 13 15 - - -
06/06:30am 21.1 - - - - SSW 19 24 10 13 - - -
06/06:00am 21.0 - - - - SSW 22 28 12 15 - - -
06/05:30am 21.2 - - - - SSW 22 28 12 15 - - -
06/05:00am 21.3 - - - - SSW 17 19 9 10 - - -
06/04:30am 21.3 - - - - SW 11 15 6 8 - - -
06/04:00am 21.1 - - - - SSW 15 20 8 11 - - -
06/03:30am 21.0 - - - - SW 19 24 10 13 - - -
06/03:00am 20.9 - - - - SW 17 22 9 12 - - -
06/02:30am 20.9 - - - - SSW 17 20 9 11 - - -
06/02:00am 20.8 - - - - SSW 22 28 12 15 - - -
06/01:30am 21.0 - - - - SSW 13 20 7 11 - - -
06/01:00am 20.9 - - - - SSW 17 20 9 11 - - -
06/12:30am 21.0 - - - - SSW 15 22 8 12 - - -
06/12:00am 21.2 - - - - SW 24 32 13 17 - - -
 
Date/Time
EDT
Temp
°C
App
Temp
°C
Dew
Point
°C
Rel
Hum
%
Delta-T
°C
Wind Press
QNH
hPa
Press
MSL
hPa
Rain since
9am
mm
Dir  Spd
km/h
Gust
km/h
Spd
kts
Gust
kts
05/11:30pm 21.3 - - - - SSW 39 52 21 28 - - -
05/11:00pm 21.5 - - - - S 46 65 25 35 - - -
05/10:54pm 21.5 - - - - SSW 43 65 23 35 - - -
05/10:30pm 21.9 - - - - SSW 43 59 23 32 - - -
05/10:00pm 22.2 - - - - SSW 41 52 22 28 - - -
05/09:33pm 23.3 - - - - SSW 43 61 23 33 - - -
05/09:30pm 24.5 - - - - SSW 41 52 22 28 - - -
05/09:20pm 24.8 - - - - NNE 13 43 7 23 - - -
05/09:00pm 25.2 - - - - NNE 9 15 5 8 - - -
05/08:30pm 25.3 - - - - NNE 13 17 7 9 - - -
05/08:00pm 24.7 - - - - NE 15 17 8 9 - - -
05/07:30pm 23.9 - - - - NNE 22 26 12 14 - - -
05/07:00pm 24.0 - - - - NNE 26 35 14 19 - - -
05/06:30pm 23.6 - - - - NNE 26 37 14 20 - - -
05/06:00pm 24.5 - - - - SE 20 24 11 13 - - -
05/05:30pm 24.2 - - - - E 19 24 10 13 - - -
05/05:00pm 25.0 - - - - NNE 20 28 11 15 - - -
05/04:30pm 24.1 - - - - E 13 15 7 8 - - -
05/04:00pm 26.1 - - - - ENE 15 20 8 11 - - -
05/03:30pm 25.2 - - - - NNE 17 37 9 20 - - -
05/03:00pm 24.6 - - - - NE 17 20 9 11 - - -
05/02:30pm 24.8 - - - - NNE 13 15 7 8 - - -
05/02:00pm 24.6 - - - - NNE 7 11 4 6 - - -
05/01:30pm 24.4 - - - - NE 11 15 6 8 - - -
05/01:00pm 24.4 - - - - NNE 9 13 5 7 - - -
05/12:30pm 24.3 - - - - NE 13 17 7 9 - - -
05/12:00pm 24.5 - - - - NE 13 17 7 9 - - -
05/11:30am 24.2 - - - - NE 7 11 4 6 - - -
05/11:00am 23.8 - - - - NE 9 13 5 7 - - -
05/10:30am 23.6 - - - - NE 19 20 10 11 - - -
05/10:00am 23.5 - - - - NNE 20 24 11 13 - - -
05/09:30am 23.5 - - - - N 22 26 12 14 - - -
05/09:00am 23.0 - - - - NNE 22 28 12 15 - - -
05/08:30am 22.8 - - - - N 24 28 13 15 - - -
05/08:00am 22.5 - - - - N 20 26 11 14 - - -
05/07:30am 22.3 - - - - ESE 13 15 7 8 - - -
05/07:00am 22.2 - - - - SE 13 26 7 14 - - -
05/06:30am 22.3 - - - - SSE 19 26 10 14 - - -
05/06:00am 22.6 - - - - SW 28 35 15 19 - - -
05/05:30am 22.2 - - - - S 17 22 9 12 - - -
05/05:00am 22.0 - - - - SSE 11 15 6 8 - - -
05/04:30am 21.9 - - - - NE 11 13 6 7 - - -
05/04:00am 21.9 - - - - NE 7 9 4 5 - - -
05/03:30am 21.9 - - - - NE 7 9 4 5 - - -
05/03:00am 21.9 - - - - NE 6 9 3 5 - - -
05/02:30am 22.0 - - - - NE 11 15 6 8 - - -
05/02:00am 22.0 - - - - NNE 11 13 6 7 - - -
05/01:30am 22.1 - - - - NNE 17 20 9 11 - - -
05/01:00am 22.3 - - - - NNE 19 22 10 12 - - -
05/12:30am 22.1 - - - - NNE 17 20 9 11 - - -
05/12:00am 22.1 - - - - NE 20 24 11 13 - - -
 
Date/Time
EDT
Temp
°C
App
Temp
°C
Dew
Point
°C
Rel
Hum
%
Delta-T
°C
Wind Press
QNH
hPa
Press
MSL
hPa
Rain since
9am
mm
Dir  Spd
km/h
Gust
km/h
Spd
kts
Gust
kts
04/11:30pm 22.2 - - - - NE 30 35 16 19 - - -

Other Formats:

Comma delimited format used in spreadsheet applications
http://www.bom.gov.au/fwo/IDN60801/IDN60801.95766.axf

JavaScript Object Notation format (JSON) in row-major order
http://www.bom.gov.au/fwo/IDN60801/IDN60801.95766.json